Lipscomb, TX

5:02 AM CDT on August 22, 2014 (GMT -0500)
Hemphill County | Change Station
CLOSE
Current Station
Airport
Location: Canadian,
Elevation: 2395 ft
Nearby Weather Stations

Elev 2395 ft 35.89 °N, 100.40 °W | Updated 7 minutes ago

Clear
Clear
80 °F
Feels Like 82 °F
N
4
Wind Variable Wind from SSW

Today
High -- | Low -- °F
--% Chance of Precip.
Yesterday
High -- | Low -- °F
Precip. -- in
7:04 AM 8:22 PM
Waning Crescent, 9% visible
Pressure 29.95 in
Visibility 10.0 miles
Clouds Clear
Heat Index 82 °F
Dew Point 67 °F
Humidity 63%
Rainfall 0.00 in
Snow Depth Not available.
UV 0 out of 12
Pollen 8.90 out of 12
Air Quality Not available.
Flu Activity Not available.
METAR KHHF 220955Z AUTO 21003KT 10SM CLR 27/19 A2995 RMK AO2 T02680192

More Conditions Fewer Conditions

Pressure 29.95 in
Visibility 10.0 miles
Clouds Clear
Heat Index 82 °F
Dew Point 67 °F
Humidity 63%
Rainfall 0.00 in
Snow Depth Not available.
UV 0 out of 12
Pollen 8.90 out of 12
Air Quality Not available.
Flu Activity Not available.
METAR KHHF 220955Z AUTO 21003KT 10SM CLR 27/19 A2995 RMK AO2 T02680192

More Conditions Fewer Conditions

10-Day Weather Forecast

Almanac

Astronomy

Aug. 22, 2014 Rise Set
Actual Time 7:04 AM CDT 8:22 PM CDT
Civil Twilight 6:38 AM CDT 8:49 PM CDT
Nautical Twilight 6:05 AM CDT 9:21 PM CDT
Astronomical Twilight 5:32 AM CDT 9:54 PM CDT
Moon 4:31 AM CDT 6:30 PM CDT
Length of Visible Light 14h 11m
Length of Day
13h 17m
Tomorrow will be 2m 7s shorter.
Waning Crescent, 9% of the Moon is Illuminated
Today
Waning Crescent
Aug 25
New
Sep 2
First Quarter
Sep 8
Full
Sep 15
Last Quarter

Today's Extremes

State Highs State Lows

Community

WunderPhotos

Upload Photos

1,746,147 photos uploaded!

Nearby

Snow Depth

Station Depth Elevation
No new snow has been reported.

Earthquake Activity

City Distance Mag. Time & Date
Cherokee, Oklahoma 113 miles 2.6 11:50 AM CDT
2014-08-17
Minimum magnitude displayed is 2.5.

Coastal Water Temperatures

Place Temperature
No Stations Reporting

Nearby Weather Stations